TimeMDT,TemperatureF,Dew PointF,Humidity,Sea Level PressureIn,VisibilityMPH,Wind Direction,Wind SpeedMPH,Gust SpeedMPH,PrecipitationIn,Events,Conditions,WindDirDegrees,DateUTC
12:54 AM,52.0,21.9,31,30.03,10.0,West,13.8,-,N/A,,Clear,260,2013-03-15 06:54:00
1:54 AM,51.1,21.9,32,30.02,10.0,West,8.1,-,N/A,,Clear,270,2013-03-15 07:54:00
2:54 AM,46.9,21.9,37,30.00,10.0,WSW,13.8,-,N/A,,Clear,250,2013-03-15 08:54:00
3:54 AM,39.9,23.0,51,30.01,10.0,West,10.4,-,N/A,,Clear,260,2013-03-15 09:54:00
4:54 AM,43.0,21.0,42,29.97,10.0,WSW,18.4,-,N/A,,Clear,240,2013-03-15 10:54:00
5:54 AM,41.0,21.0,45,29.99,10.0,WSW,17.3,-,N/A,,Clear,250,2013-03-15 11:54:00
6:54 AM,41.0,19.9,43,29.99,10.0,WSW,16.1,-,N/A,,Clear,250,2013-03-15 12:54:00
7:54 AM,44.1,19.9,38,30.01,10.0,WSW,18.4,-,N/A,,Clear,250,2013-03-15 13:54:00
8:54 AM,50.0,21.9,33,29.99,10.0,WSW,16.1,-,N/A,,Clear,240,2013-03-15 14:54:00
9:54 AM,64.0,19.9,18,29.94,10.0,West,11.5,-,N/A,,Clear,260,2013-03-15 15:54:00
10:54 AM,70.0,14.0,12,29.90,10.0,WSW,9.2,17.3,N/A,,Clear,250,2013-03-15 16:54:00
11:54 AM,75.0,9.0,8,29.86,10.0,WNW,15.0,21.9,N/A,,Clear,300,2013-03-15 17:54:00
12:54 PM,77.0,9.0,7,29.83,10.0,NW,18.4,27.6,N/A,,Clear,310,2013-03-15 18:54:00
1:54 PM,75.9,8.1,7,29.79,10.0,NW,16.1,27.6,N/A,,Clear,320,2013-03-15 19:54:00
2:54 PM,73.9,9.0,8,29.79,10.0,NW,16.1,24.2,N/A,,Clear,310,2013-03-15 20:54:00
3:54 PM,72.0,10.9,10,29.81,10.0,NW,4.6,-,N/A,,Clear,320,2013-03-15 21:54:00
4:54 PM,70.0,14.0,12,29.79,10.0,NNE,3.5,-,N/A,,Clear,30,2013-03-15 22:54:00
5:54 PM,66.9,16.0,14,29.80,10.0,Calm,Calm,-,N/A,,Clear,0,2013-03-15 23:54:00
6:54 PM,63.0,19.9,19,29.81,10.0,Calm,Calm,-,N/A,,Clear,0,2013-03-16 00:54:00
7:54 PM,55.9,21.0,26,29.83,10.0,WSW,5.8,-,N/A,,Clear,250,2013-03-16 01:54:00
8:54 PM,54.0,21.9,29,29.81,10.0,Variable,5.8,-,N/A,,Clear,0,2013-03-16 02:54:00
9:54 PM,55.0,19.0,24,29.75,10.0,WSW,13.8,-,N/A,,Clear,240,2013-03-16 03:54:00
10:54 PM,53.1,19.9,27,29.74,10.0,West,12.7,-,N/A,,Clear,260,2013-03-16 04:54:00
11:54 PM,51.1,21.0,31,29.73,10.0,West,10.4,-,N/A,,Clear,260,2013-03-16 05:54:00